sensor_id;sensor_type;location;lat;lon;timestamp;P1;durP1;ratioP1;P2;durP2;ratioP2
43124;SDS011;49182;50.788;7.318;2023-08-17T00:00:01;5.88;;;3.53;;
43124;SDS011;49182;50.788;7.318;2023-08-17T00:05:05;7.20;;;2.35;;
43124;SDS011;49182;50.788;7.318;2023-08-17T00:10:08;9.40;;;2.40;;
43124;SDS011;49182;50.788;7.318;2023-08-17T00:15:11;8.95;;;3.13;;
43124;SDS011;49182;50.788;7.318;2023-08-17T00:20:13;9.63;;;3.45;;
43124;SDS011;49182;50.788;7.318;2023-08-17T00:30:18;6.82;;;3.65;;
43124;SDS011;49182;50.788;7.318;2023-08-17T00:35:20;5.25;;;2.58;;
43124;SDS011;49182;50.788;7.318;2023-08-17T00:40:23;7.38;;;2.75;;
43124;SDS011;49182;50.788;7.318;2023-08-17T00:45:26;7.10;;;2.38;;
43124;SDS011;49182;50.788;7.318;2023-08-17T00:50:28;6.30;;;2.13;;
43124;SDS011;49182;50.788;7.318;2023-08-17T00:55:30;3.78;;;1.95;;
43124;SDS011;49182;50.788;7.318;2023-08-17T01:00:35;4.95;;;2.55;;
43124;SDS011;49182;50.788;7.318;2023-08-17T01:05:37;6.25;;;2.00;;
43124;SDS011;49182;50.788;7.318;2023-08-17T01:10:41;5.65;;;2.08;;
43124;SDS011;49182;50.788;7.318;2023-08-17T01:15:52;3.95;;;2.10;;
43124;SDS011;49182;50.788;7.318;2023-08-17T01:21:00;4.63;;;2.10;;
43124;SDS011;49182;50.788;7.318;2023-08-17T01:26:08;4.70;;;2.35;;
43124;SDS011;49182;50.788;7.318;2023-08-17T01:31:11;4.28;;;2.13;;
43124;SDS011;49182;50.788;7.318;2023-08-17T01:36:20;4.57;;;2.60;;
43124;SDS011;49182;50.788;7.318;2023-08-17T01:41:27;6.47;;;2.40;;
43124;SDS011;49182;50.788;7.318;2023-08-17T01:46:32;6.30;;;2.35;;
43124;SDS011;49182;50.788;7.318;2023-08-17T01:51:35;7.28;;;1.70;;
43124;SDS011;49182;50.788;7.318;2023-08-17T02:01:40;4.55;;;2.15;;
43124;SDS011;49182;50.788;7.318;2023-08-17T02:11:45;5.35;;;1.67;;
43124;SDS011;49182;50.788;7.318;2023-08-17T02:16:47;3.50;;;1.77;;
43124;SDS011;49182;50.788;7.318;2023-08-17T02:21:49;4.38;;;2.10;;
43124;SDS011;49182;50.788;7.318;2023-08-17T02:26:52;5.07;;;2.45;;
43124;SDS011;49182;50.788;7.318;2023-08-17T02:31:54;5.22;;;1.92;;
43124;SDS011;49182;50.788;7.318;2023-08-17T02:36:56;5.47;;;1.63;;
43124;SDS011;49182;50.788;7.318;2023-08-17T02:47:01;5.63;;;2.38;;
43124;SDS011;49182;50.788;7.318;2023-08-17T02:52:03;4.65;;;1.98;;
43124;SDS011;49182;50.788;7.318;2023-08-17T02:57:06;3.90;;;1.63;;
43124;SDS011;49182;50.788;7.318;2023-08-17T03:02:08;5.05;;;2.08;;
43124;SDS011;49182;50.788;7.318;2023-08-17T03:07:09;4.32;;;2.30;;
43124;SDS011;49182;50.788;7.318;2023-08-17T03:12:12;4.30;;;1.88;;
43124;SDS011;49182;50.788;7.318;2023-08-17T03:17:14;7.40;;;1.88;;
43124;SDS011;49182;50.788;7.318;2023-08-17T03:22:16;4.95;;;2.60;;
43124;SDS011;49182;50.788;7.318;2023-08-17T03:32:21;6.60;;;3.53;;
43124;SDS011;49182;50.788;7.318;2023-08-17T03:42:27;7.50;;;4.05;;
43124;SDS011;49182;50.788;7.318;2023-08-17T03:47:28;9.30;;;4.72;;
43124;SDS011;49182;50.788;7.318;2023-08-17T03:57:33;7.82;;;3.97;;
43124;SDS011;49182;50.788;7.318;2023-08-17T04:02:38;8.35;;;4.13;;
43124;SDS011;49182;50.788;7.318;2023-08-17T04:12:42;6.18;;;3.70;;
43124;SDS011;49182;50.788;7.318;2023-08-17T04:17:44;7.57;;;3.45;;
43124;SDS011;49182;50.788;7.318;2023-08-17T04:22:47;6.97;;;2.85;;
43124;SDS011;49182;50.788;7.318;2023-08-17T04:27:50;6.35;;;3.50;;
43124;SDS011;49182;50.788;7.318;2023-08-17T04:32:52;7.60;;;3.80;;
43124;SDS011;49182;50.788;7.318;2023-08-17T04:37:55;7.90;;;3.75;;
43124;SDS011;49182;50.788;7.318;2023-08-17T04:48:01;4.90;;;2.67;;
43124;SDS011;49182;50.788;7.318;2023-08-17T04:53:04;6.35;;;3.42;;
43124;SDS011;49182;50.788;7.318;2023-08-17T05:03:09;5.15;;;2.45;;
43124;SDS011;49182;50.788;7.318;2023-08-17T05:08:26;4.30;;;2.20;;
43124;SDS011;49182;50.788;7.318;2023-08-17T05:13:29;4.38;;;2.67;;
43124;SDS011;49182;50.788;7.318;2023-08-17T05:18:35;5.20;;;2.72;;
43124;SDS011;49182;50.788;7.318;2023-08-17T05:28:40;4.13;;;2.47;;
43124;SDS011;49182;50.788;7.318;2023-08-17T05:33:43;4.07;;;3.25;;
43124;SDS011;49182;50.788;7.318;2023-08-17T05:38:45;5.82;;;1.92;;
43124;SDS011;49182;50.788;7.318;2023-08-17T05:43:50;5.47;;;2.28;;
43124;SDS011;49182;50.788;7.318;2023-08-17T05:48:52;4.15;;;2.08;;
43124;SDS011;49182;50.788;7.318;2023-08-17T05:53:54;3.97;;;2.25;;
43124;SDS011;49182;50.788;7.318;2023-08-17T05:58:57;4.15;;;1.83;;
43124;SDS011;49182;50.788;7.318;2023-08-17T06:03:58;3.05;;;1.65;;
43124;SDS011;49182;50.788;7.318;2023-08-17T06:09:00;3.58;;;1.65;;
43124;SDS011;49182;50.788;7.318;2023-08-17T06:14:04;5.45;;;1.92;;
43124;SDS011;49182;50.788;7.318;2023-08-17T06:19:05;3.30;;;1.65;;
43124;SDS011;49182;50.788;7.318;2023-08-17T06:24:07;2.55;;;1.20;;
43124;SDS011;49182;50.788;7.318;2023-08-17T06:29:10;3.90;;;1.95;;
43124;SDS011;49182;50.788;7.318;2023-08-17T06:34:12;2.92;;;1.33;;
43124;SDS011;49182;50.788;7.318;2023-08-17T06:39:14;2.80;;;1.40;;
43124;SDS011;49182;50.788;7.318;2023-08-17T06:44:17;4.03;;;1.52;;
43124;SDS011;49182;50.788;7.318;2023-08-17T06:49:19;3.00;;;1.67;;
43124;SDS011;49182;50.788;7.318;2023-08-17T06:59:23;3.50;;;1.17;;
43124;SDS011;49182;50.788;7.318;2023-08-17T07:04:25;5.00;;;1.13;;
43124;SDS011;49182;50.788;7.318;2023-08-17T07:09:27;3.53;;;1.85;;
43124;SDS011;49182;50.788;7.318;2023-08-17T07:14:30;3.10;;;1.92;;
43124;SDS011;49182;50.788;7.318;2023-08-17T07:19:32;3.45;;;2.25;;
43124;SDS011;49182;50.788;7.318;2023-08-17T07:24:54;3.33;;;1.80;;
43124;SDS011;49182;50.788;7.318;2023-08-17T07:29:57;4.25;;;1.55;;
43124;SDS011;49182;50.788;7.318;2023-08-17T07:34:59;4.75;;;1.98;;
43124;SDS011;49182;50.788;7.318;2023-08-17T07:40:00;3.72;;;1.80;;
43124;SDS011;49182;50.788;7.318;2023-08-17T07:45:04;3.10;;;1.63;;
43124;SDS011;49182;50.788;7.318;2023-08-17T07:50:06;4.70;;;2.10;;
43124;SDS011;49182;50.788;7.318;2023-08-17T07:55:08;3.88;;;1.83;;
43124;SDS011;49182;50.788;7.318;2023-08-17T08:00:12;3.30;;;1.92;;
43124;SDS011;49182;50.788;7.318;2023-08-17T08:05:14;3.58;;;2.13;;
43124;SDS011;49182;50.788;7.318;2023-08-17T08:10:16;4.55;;;1.80;;
43124;SDS011;49182;50.788;7.318;2023-08-17T08:15:20;3.10;;;1.60;;
43124;SDS011;49182;50.788;7.318;2023-08-17T08:20:22;2.95;;;1.20;;
43124;SDS011;49182;50.788;7.318;2023-08-17T08:25:23;2.75;;;1.50;;
43124;SDS011;49182;50.788;7.318;2023-08-17T08:30:27;3.03;;;1.60;;
43124;SDS011;49182;50.788;7.318;2023-08-17T08:35:29;4.18;;;1.67;;
43124;SDS011;49182;50.788;7.318;2023-08-17T08:40:31;3.08;;;2.08;;
43124;SDS011;49182;50.788;7.318;2023-08-17T08:45:35;3.50;;;2.05;;
43124;SDS011;49182;50.788;7.318;2023-08-17T08:50:39;4.90;;;2.30;;
43124;SDS011;49182;50.788;7.318;2023-08-17T08:55:43;3.63;;;1.92;;
43124;SDS011;49182;50.788;7.318;2023-08-17T09:00:50;5.25;;;1.80;;
43124;SDS011;49182;50.788;7.318;2023-08-17T09:05:51;3.63;;;2.13;;
43124;SDS011;49182;50.788;7.318;2023-08-17T09:10:53;2.83;;;1.73;;
43124;SDS011;49182;50.788;7.318;2023-08-17T09:15:57;9.85;;;1.92;;
43124;SDS011;49182;50.788;7.318;2023-08-17T09:21:00;3.13;;;1.70;;
43124;SDS011;49182;50.788;7.318;2023-08-17T09:26:05;2.90;;;1.90;;
43124;SDS011;49182;50.788;7.318;2023-08-17T09:31:10;6.28;;;2.00;;
43124;SDS011;49182;50.788;7.318;2023-08-17T09:36:13;4.70;;;2.63;;
43124;SDS011;49182;50.788;7.318;2023-08-17T09:41:14;4.45;;;2.33;;
43124;SDS011;49182;50.788;7.318;2023-08-17T09:46:18;3.92;;;1.95;;
43124;SDS011;49182;50.788;7.318;2023-08-17T09:51:20;3.85;;;2.20;;
43124;SDS011;49182;50.788;7.318;2023-08-17T09:56:21;7.22;;;2.60;;
43124;SDS011;49182;50.788;7.318;2023-08-17T10:01:26;4.60;;;2.08;;
43124;SDS011;49182;50.788;7.318;2023-08-17T10:06:30;3.15;;;2.08;;
43124;SDS011;49182;50.788;7.318;2023-08-17T10:11:33;3.28;;;2.22;;
43124;SDS011;49182;50.788;7.318;2023-08-17T10:16:42;3.10;;;2.03;;
43124;SDS011;49182;50.788;7.318;2023-08-17T10:21:46;8.38;;;1.90;;
43124;SDS011;49182;50.788;7.318;2023-08-17T10:26:51;3.72;;;2.17;;
43124;SDS011;49182;50.788;7.318;2023-08-17T10:31:57;4.40;;;2.25;;
43124;SDS011;49182;50.788;7.318;2023-08-17T10:37:01;3.80;;;2.17;;
43124;SDS011;49182;50.788;7.318;2023-08-17T10:42:03;4.05;;;2.85;;
43124;SDS011;49182;50.788;7.318;2023-08-17T10:47:23;4.80;;;2.67;;
43124;SDS011;49182;50.788;7.318;2023-08-17T10:52:26;5.97;;;2.00;;
43124;SDS011;49182;50.788;7.318;2023-08-17T10:57:33;3.63;;;1.95;;
43124;SDS011;49182;50.788;7.318;2023-08-17T11:02:38;5.78;;;2.63;;
43124;SDS011;49182;50.788;7.318;2023-08-17T11:07:40;4.07;;;2.47;;
43124;SDS011;49182;50.788;7.318;2023-08-17T11:12:43;4.53;;;2.40;;
43124;SDS011;49182;50.788;7.318;2023-08-17T11:17:47;4.72;;;2.67;;
43124;SDS011;49182;50.788;7.318;2023-08-17T11:22:49;4.63;;;2.60;;
43124;SDS011;49182;50.788;7.318;2023-08-17T11:27:51;5.30;;;2.42;;
43124;SDS011;49182;50.788;7.318;2023-08-17T11:32:55;3.17;;;2.10;;
43124;SDS011;49182;50.788;7.318;2023-08-17T11:37:57;5.53;;;3.25;;
43124;SDS011;49182;50.788;7.318;2023-08-17T11:42:59;5.88;;;2.65;;
43124;SDS011;49182;50.788;7.318;2023-08-17T11:48:03;4.35;;;2.78;;
43124;SDS011;49182;50.788;7.318;2023-08-17T11:53:05;4.85;;;2.70;;
43124;SDS011;49182;50.788;7.318;2023-08-17T11:58:07;3.40;;;2.08;;
43124;SDS011;49182;50.788;7.318;2023-08-17T12:03:15;4.78;;;2.35;;
43124;SDS011;49182;50.788;7.318;2023-08-17T12:08:17;4.40;;;2.63;;
43124;SDS011;49182;50.788;7.318;2023-08-17T12:13:28;4.03;;;2.65;;
43124;SDS011;49182;50.788;7.318;2023-08-17T12:18:33;6.63;;;2.13;;
43124;SDS011;49182;50.788;7.318;2023-08-17T12:23:35;7.70;;;3.05;;
43124;SDS011;49182;50.788;7.318;2023-08-17T12:28:39;3.63;;;2.25;;
43124;SDS011;49182;50.788;7.318;2023-08-17T12:33:42;4.72;;;2.30;;
43124;SDS011;49182;50.788;7.318;2023-08-17T12:38:45;4.35;;;2.47;;
43124;SDS011;49182;50.788;7.318;2023-08-17T12:43:46;4.78;;;2.50;;
43124;SDS011;49182;50.788;7.318;2023-08-17T12:48:49;3.63;;;2.20;;
43124;SDS011;49182;50.788;7.318;2023-08-17T12:53:51;4.90;;;2.65;;
43124;SDS011;49182;50.788;7.318;2023-08-17T12:58:53;5.88;;;2.53;;
43124;SDS011;49182;50.788;7.318;2023-08-17T13:03:56;3.97;;;2.20;;
43124;SDS011;49182;50.788;7.318;2023-08-17T13:08:58;3.35;;;2.58;;
43124;SDS011;49182;50.788;7.318;2023-08-17T13:13:59;11.00;;;3.78;;
43124;SDS011;49182;50.788;7.318;2023-08-17T13:19:03;5.93;;;3.13;;
43124;SDS011;49182;50.788;7.318;2023-08-17T13:24:05;4.40;;;2.50;;
43124;SDS011;49182;50.788;7.318;2023-08-17T13:29:07;6.50;;;3.00;;
43124;SDS011;49182;50.788;7.318;2023-08-17T13:34:10;5.97;;;3.55;;
43124;SDS011;49182;50.788;7.318;2023-08-17T13:39:12;6.43;;;3.85;;
43124;SDS011;49182;50.788;7.318;2023-08-17T13:44:14;4.25;;;3.35;;
43124;SDS011;49182;50.788;7.318;2023-08-17T13:49:17;3.90;;;2.28;;
43124;SDS011;49182;50.788;7.318;2023-08-17T13:54:18;5.63;;;2.70;;
43124;SDS011;49182;50.788;7.318;2023-08-17T13:59:20;4.97;;;3.80;;
43124;SDS011;49182;50.788;7.318;2023-08-17T14:04:24;5.60;;;3.65;;
43124;SDS011;49182;50.788;7.318;2023-08-17T14:09:26;4.05;;;2.28;;
43124;SDS011;49182;50.788;7.318;2023-08-17T14:14:28;6.60;;;3.05;;
43124;SDS011;49182;50.788;7.318;2023-08-17T14:19:31;5.50;;;3.80;;
43124;SDS011;49182;50.788;7.318;2023-08-17T14:24:33;4.38;;;2.80;;
43124;SDS011;49182;50.788;7.318;2023-08-17T14:29:34;4.57;;;3.47;;
43124;SDS011;49182;50.788;7.318;2023-08-17T14:34:37;4.55;;;2.92;;
43124;SDS011;49182;50.788;7.318;2023-08-17T14:39:39;6.75;;;3.42;;
43124;SDS011;49182;50.788;7.318;2023-08-17T14:44:41;4.85;;;3.47;;
43124;SDS011;49182;50.788;7.318;2023-08-17T14:49:44;6.45;;;4.25;;
43124;SDS011;49182;50.788;7.318;2023-08-17T14:54:45;5.15;;;3.22;;
43124;SDS011;49182;50.788;7.318;2023-08-17T14:59:47;5.82;;;3.42;;
43124;SDS011;49182;50.788;7.318;2023-08-17T15:04:50;5.70;;;3.90;;
43124;SDS011;49182;50.788;7.318;2023-08-17T15:09:52;4.57;;;3.00;;
43124;SDS011;49182;50.788;7.318;2023-08-17T15:14:54;4.40;;;3.42;;
43124;SDS011;49182;50.788;7.318;2023-08-17T15:19:57;6.00;;;2.90;;
43124;SDS011;49182;50.788;7.318;2023-08-17T15:25:00;4.20;;;2.80;;
43124;SDS011;49182;50.788;7.318;2023-08-17T15:30:02;4.60;;;2.53;;
43124;SDS011;49182;50.788;7.318;2023-08-17T15:35:06;4.25;;;2.80;;
43124;SDS011;49182;50.788;7.318;2023-08-17T15:40:09;3.55;;;2.22;;
43124;SDS011;49182;50.788;7.318;2023-08-17T15:45:11;4.93;;;2.53;;
43124;SDS011;49182;50.788;7.318;2023-08-17T15:50:14;4.80;;;2.40;;
43124;SDS011;49182;50.788;7.318;2023-08-17T15:55:16;4.22;;;2.65;;
43124;SDS011;49182;50.788;7.318;2023-08-17T16:00:17;5.72;;;2.42;;
43124;SDS011;49182;50.788;7.318;2023-08-17T16:05:22;3.83;;;2.10;;
43124;SDS011;49182;50.788;7.318;2023-08-17T16:10:24;4.05;;;2.03;;
43124;SDS011;49182;50.788;7.318;2023-08-17T16:15:25;3.15;;;1.85;;
43124;SDS011;49182;50.788;7.318;2023-08-17T16:20:28;2.60;;;1.60;;
43124;SDS011;49182;50.788;7.318;2023-08-17T16:25:30;2.95;;;1.75;;
43124;SDS011;49182;50.788;7.318;2023-08-17T16:30:32;4.32;;;2.63;;
43124;SDS011;49182;50.788;7.318;2023-08-17T16:35:35;5.20;;;2.35;;
43124;SDS011;49182;50.788;7.318;2023-08-17T16:40:37;4.22;;;2.85;;
43124;SDS011;49182;50.788;7.318;2023-08-17T16:45:39;3.72;;;2.40;;
43124;SDS011;49182;50.788;7.318;2023-08-17T16:50:43;4.13;;;2.58;;
43124;SDS011;49182;50.788;7.318;2023-08-17T16:55:44;5.10;;;2.50;;
43124;SDS011;49182;50.788;7.318;2023-08-17T17:00:55;3.63;;;2.45;;
43124;SDS011;49182;50.788;7.318;2023-08-17T17:05:58;8.23;;;2.63;;
43124;SDS011;49182;50.788;7.318;2023-08-17T17:10:59;6.15;;;2.63;;
43124;SDS011;49182;50.788;7.318;2023-08-17T17:16:01;3.40;;;2.28;;
43124;SDS011;49182;50.788;7.318;2023-08-17T17:21:06;8.35;;;2.60;;
43124;SDS011;49182;50.788;7.318;2023-08-17T17:26:08;5.22;;;2.58;;
43124;SDS011;49182;50.788;7.318;2023-08-17T17:31:10;3.88;;;2.53;;
43124;SDS011;49182;50.788;7.318;2023-08-17T17:36:13;4.43;;;2.63;;
43124;SDS011;49182;50.788;7.318;2023-08-17T17:41:15;4.78;;;3.10;;
43124;SDS011;49182;50.788;7.318;2023-08-17T17:46:16;4.60;;;2.75;;
43124;SDS011;49182;50.788;7.318;2023-08-17T17:51:20;4.80;;;2.88;;
43124;SDS011;49182;50.788;7.318;2023-08-17T17:56:35;4.03;;;2.75;;
43124;SDS011;49182;50.788;7.318;2023-08-17T18:01:37;3.85;;;2.40;;
43124;SDS011;49182;50.788;7.318;2023-08-17T18:06:41;3.60;;;2.63;;
43124;SDS011;49182;50.788;7.318;2023-08-17T18:11:42;5.10;;;2.83;;
43124;SDS011;49182;50.788;7.318;2023-08-17T18:16:44;4.95;;;3.25;;
43124;SDS011;49182;50.788;7.318;2023-08-17T18:21:47;7.60;;;2.60;;
43124;SDS011;49182;50.788;7.318;2023-08-17T18:26:49;4.18;;;2.60;;
43124;SDS011;49182;50.788;7.318;2023-08-17T18:31:51;6.30;;;3.58;;
43124;SDS011;49182;50.788;7.318;2023-08-17T18:36:54;7.70;;;2.65;;
43124;SDS011;49182;50.788;7.318;2023-08-17T18:41:57;8.40;;;3.28;;
43124;SDS011;49182;50.788;7.318;2023-08-17T18:47:01;5.35;;;3.00;;
43124;SDS011;49182;50.788;7.318;2023-08-17T18:52:04;5.10;;;3.08;;
43124;SDS011;49182;50.788;7.318;2023-08-17T18:57:07;5.38;;;3.17;;
43124;SDS011;49182;50.788;7.318;2023-08-17T19:02:09;6.22;;;3.05;;
43124;SDS011;49182;50.788;7.318;2023-08-17T19:07:12;8.93;;;4.18;;
43124;SDS011;49182;50.788;7.318;2023-08-17T19:12:15;15.60;;;4.53;;
43124;SDS011;49182;50.788;7.318;2023-08-17T19:17:17;4.82;;;2.97;;
43124;SDS011;49182;50.788;7.318;2023-08-17T19:22:21;9.85;;;3.67;;
43124;SDS011;49182;50.788;7.318;2023-08-17T19:27:22;7.18;;;3.20;;
43124;SDS011;49182;50.788;7.318;2023-08-17T19:32:24;5.32;;;3.10;;
43124;SDS011;49182;50.788;7.318;2023-08-17T19:42:33;5.38;;;3.72;;
43124;SDS011;49182;50.788;7.318;2023-08-17T19:52:38;6.82;;;4.38;;
43124;SDS011;49182;50.788;7.318;2023-08-17T19:57:39;6.03;;;2.78;;
43124;SDS011;49182;50.788;7.318;2023-08-17T20:07:44;5.93;;;3.30;;
43124;SDS011;49182;50.788;7.318;2023-08-17T20:12:46;5.75;;;3.28;;
43124;SDS011;49182;50.788;7.318;2023-08-17T20:22:50;5.03;;;3.42;;
43124;SDS011;49182;50.788;7.318;2023-08-17T20:27:52;6.80;;;4.00;;
43124;SDS011;49182;50.788;7.318;2023-08-17T20:37:57;8.70;;;4.15;;
43124;SDS011;49182;50.788;7.318;2023-08-17T20:42:59;8.15;;;4.38;;
43124;SDS011;49182;50.788;7.318;2023-08-17T20:53:04;5.53;;;3.40;;
43124;SDS011;49182;50.788;7.318;2023-08-17T20:58:06;8.93;;;3.30;;
43124;SDS011;49182;50.788;7.318;2023-08-17T21:03:08;7.85;;;4.13;;
43124;SDS011;49182;50.788;7.318;2023-08-17T21:08:12;8.27;;;5.63;;
43124;SDS011;49182;50.788;7.318;2023-08-17T21:13:14;6.25;;;4.05;;
43124;SDS011;49182;50.788;7.318;2023-08-17T21:18:16;9.10;;;4.65;;
43124;SDS011;49182;50.788;7.318;2023-08-17T21:23:19;7.40;;;4.63;;
43124;SDS011;49182;50.788;7.318;2023-08-17T21:28:21;7.93;;;4.65;;
43124;SDS011;49182;50.788;7.318;2023-08-17T21:38:25;6.93;;;3.58;;
43124;SDS011;49182;50.788;7.318;2023-08-17T21:43:28;6.43;;;3.90;;
43124;SDS011;49182;50.788;7.318;2023-08-17T21:48:30;6.45;;;4.00;;
43124;SDS011;49182;50.788;7.318;2023-08-17T21:53:33;13.88;;;3.80;;
43124;SDS011;49182;50.788;7.318;2023-08-17T21:58:35;6.68;;;4.25;;
43124;SDS011;49182;50.788;7.318;2023-08-17T22:08:40;10.07;;;3.80;;
43124;SDS011;49182;50.788;7.318;2023-08-17T22:13:42;5.68;;;3.45;;
43124;SDS011;49182;50.788;7.318;2023-08-17T22:18:43;5.25;;;4.30;;
43124;SDS011;49182;50.788;7.318;2023-08-17T22:28:48;5.60;;;3.55;;
43124;SDS011;49182;50.788;7.318;2023-08-17T22:33:50;7.07;;;4.25;;
43124;SDS011;49182;50.788;7.318;2023-08-17T22:38:53;6.95;;;4.38;;
43124;SDS011;49182;50.788;7.318;2023-08-17T22:43:54;5.97;;;4.20;;
43124;SDS011;49182;50.788;7.318;2023-08-17T22:48:56;5.65;;;4.00;;
43124;SDS011;49182;50.788;7.318;2023-08-17T22:59:01;8.38;;;3.72;;
43124;SDS011;49182;50.788;7.318;2023-08-17T23:04:03;6.68;;;3.70;;
43124;SDS011;49182;50.788;7.318;2023-08-17T23:09:07;10.43;;;3.67;;
43124;SDS011;49182;50.788;7.318;2023-08-17T23:14:09;6.95;;;4.85;;
43124;SDS011;49182;50.788;7.318;2023-08-17T23:19:10;5.53;;;3.40;;
43124;SDS011;49182;50.788;7.318;2023-08-17T23:24:14;7.70;;;4.15;;
43124;SDS011;49182;50.788;7.318;2023-08-17T23:29:16;6.43;;;3.85;;
43124;SDS011;49182;50.788;7.318;2023-08-17T23:34:17;10.10;;;4.43;;
43124;SDS011;49182;50.788;7.318;2023-08-17T23:39:20;5.03;;;3.35;;
43124;SDS011;49182;50.788;7.318;2023-08-17T23:44:23;6.70;;;3.63;;
43124;SDS011;49182;50.788;7.318;2023-08-17T23:49:25;10.65;;;4.68;;
43124;SDS011;49182;50.788;7.318;2023-08-17T23:54:28;5.85;;;4.50;;
43124;SDS011;49182;50.788;7.318;2023-08-17T23:59:29;7.93;;;3.97;;
